Time;durP1;ratioP1;P1;durP2;ratioP2;P2;SDS_P1;SDS_P2;PMS_P1;PMS_P2;Temp;Humidity;BMP_temperature;BMP_pressure;BME280_temperature;BME280_humidity;BME280_pressure;Samples;Min_cycle;Max_cycle;Signal;HPM_P1;HPM_P2
2023/05/19 00:00:45;;;;;;;5.25;4.75;;;;;;;;;;5038510;28;20033;-69
2023/05/19 00:03:11;;;;;;;5.70;5.15;;;;;;;;;;5042500;28;20041;-67
2023/05/19 00:05:44;;;;;;;6.25;5.20;;;;;;;;;;5034441;28;20088;-68
2023/05/19 00:08:10;;;;;;;5.35;4.95;;;;;;;;;;5037780;28;20040;-67
2023/05/19 00:10:36;;;;;;;6.70;4.93;;;;;;;;;;5024006;28;20036;-68
2023/05/19 00:13:02;;;;;;;5.20;4.72;;;;;;;;;;5036051;28;20041;-68
2023/05/19 00:15:27;;;;;;;5.10;4.60;;;;;;;;;;5040862;28;20034;-68
2023/05/19 00:17:54;;;;;;;10.85;5.10;;;;;;;;;;5040248;28;20041;-68
2023/05/19 00:20:20;;;;;;;5.43;4.95;;;;;;;;;;5034724;28;20040;-68
2023/05/19 00:22:46;;;;;;;6.35;4.82;;;;;;;;;;5036559;28;20045;-68
2023/05/19 00:25:11;;;;;;;5.13;4.72;;;;;;;;;;5042476;28;20036;-68
2023/05/19 00:27:37;;;;;;;7.78;4.95;;;;;;;;;;5042630;28;20115;-67
2023/05/19 00:30:03;;;;;;;5.45;4.95;;;;;;;;;;5020941;28;20033;-68
2023/05/19 00:32:29;;;;;;;6.45;5.20;;;;;;;;;;5038020;28;20108;-68
2023/05/19 00:34:55;;;;;;;5.82;5.32;;;;;;;;;;5043370;28;20120;-68
2023/05/19 00:37:22;;;;;;;7.07;5.35;;;;;;;;;;5036988;28;20128;-68
2023/05/19 00:39:48;;;;;;;5.15;4.75;;;;;;;;;;5040548;28;20510;-68
2023/05/19 00:42:13;;;;;;;5.65;4.63;;;;;;;;;;5022082;28;20116;-68
2023/05/19 00:44:40;;;;;;;5.65;5.05;;;;;;;;;;5020603;28;20033;-68
2023/05/19 00:47:09;;;;;;;6.00;4.88;;;;;;;;;;5022091;28;20108;-68
2023/05/19 00:49:34;;;;;;;5.32;4.80;;;;;;;;;;5043724;28;20029;-68
2023/05/19 00:52:00;;;;;;;9.07;5.28;;;;;;;;;;5040075;28;20397;-68
2023/05/19 00:54:27;;;;;;;8.48;5.03;;;;;;;;;;5017587;28;20128;-68
2023/05/19 00:56:54;;;;;;;6.47;4.63;;;;;;;;;;5033765;28;20396;-67
2023/05/19 00:59:20;;;;;;;6.43;4.88;;;;;;;;;;5021457;28;20028;-68
2023/05/19 01:01:47;;;;;;;5.57;4.85;;;;;;;;;;5042725;28;20569;-68
2023/05/19 01:04:20;;;;;;;6.07;4.25;;;;;;;;;;5018292;28;20053;-68
2023/05/19 01:06:48;;;;;;;4.80;4.50;;;;;;;;;;5039671;28;20037;-68
2023/05/19 01:09:15;;;;;;;4.75;4.35;;;;;;;;;;5037270;28;20029;-68
2023/05/19 01:11:41;;;;;;;4.63;4.38;;;;;;;;;;5023295;28;20030;-68
2023/05/19 01:14:07;;;;;;;5.20;4.82;;;;;;;;;;5043369;28;20036;-67
2023/05/19 01:16:38;;;;;;;5.38;4.53;;;;;;;;;;5030085;28;20021;-68
2023/05/19 01:19:20;;;;;;;4.93;4.63;;;;;;;;;;5047059;28;20480;-68
2023/05/19 01:22:24;;;;;;;6.28;4.90;;;;;;;;;;5025533;28;20041;-69
2023/05/19 01:25:24;;;;;;;5.30;4.90;;;;;;;;;;5045661;28;20155;-68
2023/05/19 01:28:05;;;;;;;4.60;4.30;;;;;;;;;;5029747;28;20048;-68
2023/05/19 01:30:42;;;;;;;5.35;4.40;;;;;;;;;;5046505;28;20055;-68
2023/05/19 01:33:12;;;;;;;5.20;4.80;;;;;;;;;;5030146;28;20036;-69
2023/05/19 01:35:40;;;;;;;5.10;4.50;;;;;;;;;;5027915;28;20094;-68
2023/05/19 01:38:09;;;;;;;4.88;4.43;;;;;;;;;;5039270;28;20085;-68
2023/05/19 01:40:37;;;;;;;4.93;4.53;;;;;;;;;;5046461;28;20033;-68
2023/05/19 01:43:03;;;;;;;6.72;4.80;;;;;;;;;;5029099;28;20041;-69
2023/05/19 01:45:32;;;;;;;4.82;4.53;;;;;;;;;;5027260;28;20113;-69
2023/05/19 01:48:00;;;;;;;5.20;4.80;;;;;;;;;;5044154;28;20044;-68
2023/05/19 01:50:26;;;;;;;4.90;4.50;;;;;;;;;;5025241;28;20140;-68
2023/05/19 01:52:52;;;;;;;4.65;4.35;;;;;;;;;;5046917;28;20033;-68
2023/05/19 01:55:20;;;;;;;4.85;4.55;;;;;;;;;;5042895;28;20041;-68
2023/05/19 01:58:04;;;;;;;4.90;4.50;;;;;;;;;;5025209;28;20033;-68
2023/05/19 02:00:42;;;;;;;4.88;4.55;;;;;;;;;;5030389;28;20036;-68
2023/05/19 02:03:38;;;;;;;4.45;4.20;;;;;;;;;;5028954;28;20399;-68
2023/05/19 02:06:04;;;;;;;4.90;4.35;;;;;;;;;;5015425;28;20513;-68
2023/05/19 02:08:37;;;;;;;5.22;4.82;;;;;;;;;;5023099;28;20056;-68
2023/05/19 02:11:09;;;;;;;4.78;4.47;;;;;;;;;;5041687;28;20033;-68
2023/05/19 02:13:40;;;;;;;4.50;4.20;;;;;;;;;;5032887;28;20033;-68
2023/05/19 02:16:06;;;;;;;4.57;4.28;;;;;;;;;;5046919;28;20479;-69
2023/05/19 02:18:32;;;;;;;5.78;4.47;;;;;;;;;;5033863;28;20477;-68
2023/05/19 02:20:58;;;;;;;4.95;4.47;;;;;;;;;;5047897;28;20033;-68
2023/05/19 02:23:24;;;;;;;5.13;4.75;;;;;;;;;;5022561;28;20033;-68
2023/05/19 02:25:50;;;;;;;4.75;4.45;;;;;;;;;;5029862;28;20067;-69
2023/05/19 02:28:16;;;;;;;5.22;4.72;;;;;;;;;;5041715;28;20050;-68
2023/05/19 02:30:41;;;;;;;5.97;4.72;;;;;;;;;;5024475;28;20554;-68
2023/05/19 02:33:07;;;;;;;5.72;5.22;;;;;;;;;;5038463;28;20128;-68
2023/05/19 02:35:32;;;;;;;5.97;4.93;;;;;;;;;;5005950;28;20040;-68
2023/05/19 02:37:58;;;;;;;4.35;4.15;;;;;;;;;;5022824;28;20040;-67
2023/05/19 02:40:24;;;;;;;6.15;4.82;;;;;;;;;;5036568;28;20029;-68
2023/05/19 02:42:49;;;;;;;5.22;4.82;;;;;;;;;;5040143;28;20047;-68
2023/05/19 02:45:15;;;;;;;5.30;4.80;;;;;;;;;;5025552;28;20041;-68
2023/05/19 02:47:41;;;;;;;4.72;4.43;;;;;;;;;;5026377;28;20033;-68
2023/05/19 02:50:07;;;;;;;5.30;5.00;;;;;;;;;;5025962;28;20040;-68
2023/05/19 02:52:32;;;;;;;6.22;5.72;;;;;;;;;;5041713;28;20464;-68
2023/05/19 02:54:58;;;;;;;6.20;5.40;;;;;;;;;;5025839;28;20037;-68
2023/05/19 02:57:25;;;;;;;4.97;4.68;;;;;;;;;;5025259;28;20025;-68
2023/05/19 02:59:51;;;;;;;5.15;4.75;;;;;;;;;;5023091;28;20099;-68
2023/05/19 03:02:17;;;;;;;5.65;5.25;;;;;;;;;;5020844;28;20068;-68
2023/05/19 03:04:42;;;;;;;5.63;5.15;;;;;;;;;;5021218;28;20049;-68
2023/05/19 03:07:09;;;;;;;5.80;5.30;;;;;;;;;;5042115;28;20116;-68
2023/05/19 03:09:38;;;;;;;5.53;5.03;;;;;;;;;;5040228;28;20076;-68
2023/05/19 03:12:06;;;;;;;7.72;5.05;;;;;;;;;;5035979;28;20036;-68
2023/05/19 03:14:33;;;;;;;7.20;5.40;;;;;;;;;;5028285;28;20036;-68
2023/05/19 03:16:59;;;;;;;6.70;4.80;;;;;;;;;;5022123;28;20029;-68
2023/05/19 03:19:26;;;;;;;5.18;4.75;;;;;;;;;;5035366;28;20056;-68
2023/05/19 03:21:51;;;;;;;5.82;4.97;;;;;;;;;;5041083;28;20025;-68
2023/05/19 03:24:17;;;;;;;5.28;4.80;;;;;;;;;;5023146;28;20035;-70
2023/05/19 03:26:43;;;;;;;5.55;5.15;;;;;;;;;;5020405;28;20228;-71
2023/05/19 03:29:08;;;;;;;5.60;5.10;;;;;;;;;;5023518;28;20041;-69
2023/05/19 03:31:35;;;;;;;7.57;4.90;;;;;;;;;;5024746;28;20468;-71
2023/05/19 03:34:02;;;;;;;5.30;4.82;;;;;;;;;;5028639;28;20400;-70
2023/05/19 03:36:39;;;;;;;6.40;4.75;;;;;;;;;;5026403;28;20025;-70
2023/05/19 03:39:09;;;;;;;6.88;5.85;;;;;;;;;;5025325;28;20120;-70
2023/05/19 03:41:36;;;;;;;5.63;5.25;;;;;;;;;;5022236;28;20033;-69
2023/05/19 03:44:02;;;;;;;5.55;5.05;;;;;;;;;;5026161;28;20435;-68
2023/05/19 03:46:28;;;;;;;5.18;4.82;;;;;;;;;;5018093;28;20029;-68
2023/05/19 03:49:13;;;;;;;6.45;5.78;;;;;;;;;;5033858;28;20124;-69
2023/05/19 03:51:57;;;;;;;5.40;5.05;;;;;;;;;;5039052;28;20037;-69
2023/05/19 03:54:31;;;;;;;5.40;4.97;;;;;;;;;;5019220;28;20116;-68
2023/05/19 03:56:57;;;;;;;7.85;5.45;;;;;;;;;;5026754;28;20498;-68
2023/05/19 03:59:23;;;;;;;5.30;4.90;;;;;;;;;;5021600;28;20393;-69
2023/05/19 04:01:49;;;;;;;5.70;5.30;;;;;;;;;;5025860;28;20033;-69
2023/05/19 04:04:15;;;;;;;5.18;4.88;;;;;;;;;;5018704;28;20531;-69
2023/05/19 04:06:40;;;;;;;6.03;5.57;;;;;;;;;;5016108;28;20037;-68
2023/05/19 04:09:14;;;;;;;5.60;5.20;;;;;;;;;;5020820;28;20047;-69
2023/05/19 04:11:40;;;;;;;5.82;5.43;;;;;;;;;;5003492;28;20059;-68
2023/05/19 04:14:06;;;;;;;5.15;4.65;;;;;;;;;;5027950;28;20144;-70
2023/05/19 04:16:32;;;;;;;9.93;5.40;;;;;;;;;;5040216;28;20489;-68
2023/05/19 04:18:57;;;;;;;6.10;5.50;;;;;;;;;;5019489;28;20029;-69
2023/05/19 04:21:23;;;;;;;5.90;5.40;;;;;;;;;;5023168;28;20048;-68
2023/05/19 04:23:49;;;;;;;6.93;5.72;;;;;;;;;;5038900;28;20405;-68
2023/05/19 04:26:15;;;;;;;6.85;6.05;;;;;;;;;;5021607;28;20049;-68
2023/05/19 04:28:43;;;;;;;7.20;5.65;;;;;;;;;;5025193;28;20040;-68
2023/05/19 04:31:13;;;;;;;5.50;5.10;;;;;;;;;;5039745;28;20029;-69
2023/05/19 04:33:39;;;;;;;6.22;5.72;;;;;;;;;;5022892;28;20045;-68
2023/05/19 04:36:10;;;;;;;6.03;5.60;;;;;;;;;;5036862;28;20052;-69
2023/05/19 04:38:41;;;;;;;11.32;6.20;;;;;;;;;;5023679;28;20031;-70
2023/05/19 04:41:09;;;;;;;5.88;5.18;;;;;;;;;;5021719;28;20033;-69
2023/05/19 04:43:35;;;;;;;6.35;5.88;;;;;;;;;;5022520;28;20047;-69
2023/05/19 04:46:05;;;;;;;6.28;5.78;;;;;;;;;;5024041;28;20044;-69
2023/05/19 04:48:32;;;;;;;6.22;5.63;;;;;;;;;;5034570;28;20041;-70
2023/05/19 04:51:00;;;;;;;7.25;5.30;;;;;;;;;;5042055;28;20029;-69
2023/05/19 04:53:29;;;;;;;5.82;5.32;;;;;;;;;;5021608;28;20552;-70
2023/05/19 04:55:55;;;;;;;6.10;5.70;;;;;;;;;;5020628;28;20159;-69
2023/05/19 04:58:24;;;;;;;6.00;5.60;;;;;;;;;;5024673;28;20400;-69
2023/05/19 05:00:51;;;;;;;6.82;6.20;;;;;;;;;;5022324;28;20048;-69
2023/05/19 05:03:17;;;;;;;6.28;5.70;;;;;;;;;;5021276;28;20036;-69
2023/05/19 05:05:43;;;;;;;6.95;6.10;;;;;;;;;;5018257;28;20075;-69
2023/05/19 05:08:10;;;;;;;5.90;5.40;;;;;;;;;;5018667;28;20037;-69
2023/05/19 05:10:41;;;;;;;7.80;5.70;;;;;;;;;;5026478;28;20459;-69
2023/05/19 05:13:07;;;;;;;10.55;6.13;;;;;;;;;;5020441;28;20069;-69
2023/05/19 05:15:34;;;;;;;6.82;5.90;;;;;;;;;;5026313;28;20029;-69
2023/05/19 05:18:01;;;;;;;7.20;6.17;;;;;;;;;;5021402;28;20091;-68
2023/05/19 05:20:27;;;;;;;6.00;5.50;;;;;;;;;;5020053;28;20318;-69
2023/05/19 05:22:53;;;;;;;7.90;5.53;;;;;;;;;;5024704;28;20045;-69
2023/05/19 05:25:20;;;;;;;7.65;6.10;;;;;;;;;;5021103;28;20115;-69
2023/05/19 05:27:46;;;;;;;5.65;5.28;;;;;;;;;;5022986;28;20048;-69
2023/05/19 05:30:12;;;;;;;10.05;5.82;;;;;;;;;;5023832;28;20033;-69
2023/05/19 05:32:39;;;;;;;6.75;5.70;;;;;;;;;;5020522;28;20427;-69
2023/05/19 05:35:10;;;;;;;6.15;5.63;;;;;;;;;;5013050;28;20045;-69
2023/05/19 05:37:37;;;;;;;6.97;6.00;;;;;;;;;;5020101;28;20033;-68
2023/05/19 05:40:03;;;;;;;6.45;5.38;;;;;;;;;;5015570;28;20597;-68
2023/05/19 05:42:29;;;;;;;6.32;5.80;;;;;;;;;;5023423;28;20036;-67
2023/05/19 05:44:55;;;;;;;5.78;5.28;;;;;;;;;;5018272;28;20039;-68
2023/05/19 05:47:21;;;;;;;6.45;5.90;;;;;;;;;;5020143;28;20041;-67
2023/05/19 05:49:47;;;;;;;5.72;5.22;;;;;;;;;;5037363;28;20037;-67
2023/05/19 05:52:14;;;;;;;5.43;4.97;;;;;;;;;;5016043;28;20035;-67
2023/05/19 05:54:45;;;;;;;5.68;5.28;;;;;;;;;;5022094;28;20032;-67
2023/05/19 05:57:12;;;;;;;6.35;5.25;;;;;;;;;;5040110;28;20029;-66
2023/05/19 05:59:39;;;;;;;6.03;5.40;;;;;;;;;;5025081;28;20037;-67
2023/05/19 06:02:05;;;;;;;5.68;4.75;;;;;;;;;;5023059;28;20030;-67
2023/05/19 06:04:32;;;;;;;6.63;5.03;;;;;;;;;;5022374;28;20037;-67
2023/05/19 06:07:00;;;;;;;5.18;4.78;;;;;;;;;;5021475;28;20038;-67
2023/05/19 06:09:28;;;;;;;4.88;4.47;;;;;;;;;;5026089;28;20116;-67
2023/05/19 06:11:54;;;;;;;7.68;5.38;;;;;;;;;;5020836;28;20488;-67
2023/05/19 06:14:19;;;;;;;6.22;4.63;;;;;;;;;;5026314;28;20068;-67
2023/05/19 06:17:10;;;;;;;7.05;4.47;;;;;;;;;;5025380;28;20036;-67
2023/05/19 06:19:36;;;;;;;5.68;4.68;;;;;;;;;;5023134;28;20034;-67
2023/05/19 06:22:02;;;;;;;5.30;4.80;;;;;;;;;;5023887;28;20091;-67
2023/05/19 06:24:29;;;;;;;10.77;4.65;;;;;;;;;;5021058;28;20067;-67
2023/05/19 06:26:54;;;;;;;4.93;4.47;;;;;;;;;;5017876;28;20057;-67
2023/05/19 06:29:20;;;;;;;6.15;4.93;;;;;;;;;;5025911;28;20044;-67
2023/05/19 06:31:47;;;;;;;11.05;4.72;;;;;;;;;;5013377;28;20033;-67
2023/05/19 06:34:16;;;;;;;5.45;4.30;;;;;;;;;;5024349;28;20389;-67
2023/05/19 06:36:42;;;;;;;4.78;4.38;;;;;;;;;;5018315;28;20103;-67
2023/05/19 06:39:08;;;;;;;5.10;4.70;;;;;;;;;;5021042;28;20056;-67
2023/05/19 06:41:35;;;;;;;5.10;4.60;;;;;;;;;;5019913;28;20441;-67
2023/05/19 06:44:00;;;;;;;5.07;4.68;;;;;;;;;;5021542;28;20045;-67
2023/05/19 06:46:31;;;;;;;6.50;5.07;;;;;;;;;;5020066;28;20040;-67
2023/05/19 06:48:57;;;;;;;6.05;4.90;;;;;;;;;;5035885;28;20037;-68
2023/05/19 06:51:24;;;;;;;4.80;4.40;;;;;;;;;;5040332;28;20037;-68
2023/05/19 06:53:54;;;;;;;6.20;5.00;;;;;;;;;;5022623;28;20025;-68
2023/05/19 06:56:24;;;;;;;5.80;5.38;;;;;;;;;;5022252;28;20029;-68
2023/05/19 06:58:50;;;;;;;6.95;5.05;;;;;;;;;;5023968;28;20503;-68
2023/05/19 07:01:16;;;;;;;5.63;5.13;;;;;;;;;;5020640;28;20148;-68
2023/05/19 07:03:47;;;;;;;6.00;5.40;;;;;;;;;;5025507;28;20037;-68
2023/05/19 07:06:14;;;;;;;5.13;4.70;;;;;;;;;;5020019;28;21892;-68
2023/05/19 07:08:40;;;;;;;5.97;5.40;;;;;;;;;;5020638;28;20374;-69
2023/05/19 07:11:06;;;;;;;6.82;5.50;;;;;;;;;;5025658;28;20029;-68
2023/05/19 07:13:32;;;;;;;6.10;5.50;;;;;;;;;;5037924;28;20048;-68
2023/05/19 07:15:58;;;;;;;8.95;5.80;;;;;;;;;;5023856;28;20068;-68
2023/05/19 07:18:26;;;;;;;6.00;5.38;;;;;;;;;;5024133;28;20447;-68
2023/05/19 07:20:52;;;;;;;6.50;5.47;;;;;;;;;;5021719;28;20097;-69
2023/05/19 07:23:19;;;;;;;5.75;5.25;;;;;;;;;;5022701;28;20045;-68
2023/05/19 07:25:45;;;;;;;8.63;5.75;;;;;;;;;;5024180;28;20048;-68
2023/05/19 07:28:11;;;;;;;6.60;5.35;;;;;;;;;;5036729;28;20140;-68
2023/05/19 07:30:37;;;;;;;5.93;5.45;;;;;;;;;;5037358;28;20124;-69
2023/05/19 07:33:03;;;;;;;5.63;5.05;;;;;;;;;;5036787;28;20041;-68
2023/05/19 07:35:29;;;;;;;5.93;5.43;;;;;;;;;;5039271;28;20041;-69
2023/05/19 07:37:54;;;;;;;9.13;5.60;;;;;;;;;;5037086;28;20116;-67
2023/05/19 07:40:20;;;;;;;7.32;5.45;;;;;;;;;;5043949;28;20060;-68
2023/05/19 07:42:48;;;;;;;6.95;5.55;;;;;;;;;;5039932;28;20098;-67
2023/05/19 07:45:14;;;;;;;6.13;5.33;;;;;;;;;;5040764;28;20334;-67
2023/05/19 07:47:40;;;;;;;6.18;5.57;;;;;;;;;;5040207;28;20078;-67
2023/05/19 07:50:06;;;;;;;6.72;5.45;;;;;;;;;;5038073;28;20611;-67
2023/05/19 07:52:31;;;;;;;5.95;5.32;;;;;;;;;;5035310;28;20107;-67
2023/05/19 07:54:58;;;;;;;8.40;6.20;;;;;;;;;;5040612;28;20140;-67
2023/05/19 07:57:23;;;;;;;8.60;5.72;;;;;;;;;;5039803;28;20079;-68
2023/05/19 07:59:49;;;;;;;5.93;5.20;;;;;;;;;;5036976;28;20416;-67
2023/05/19 08:02:15;;;;;;;5.68;5.20;;;;;;;;;;5037706;28;20033;-68
2023/05/19 08:04:41;;;;;;;6.78;5.10;;;;;;;;;;5032067;28;20588;-67
2023/05/19 08:07:07;;;;;;;5.30;4.85;;;;;;;;;;5008510;28;20052;-67
2023/05/19 08:09:32;;;;;;;6.05;5.45;;;;;;;;;;5034998;28;20079;-68
2023/05/19 08:12:00;;;;;;;6.10;5.50;;;;;;;;;;5039061;28;20044;-68
2023/05/19 08:14:26;;;;;;;7.82;5.30;;;;;;;;;;5037268;28;20592;-67
2023/05/19 08:16:51;;;;;;;6.32;5.80;;;;;;;;;;5035372;28;20033;-68
2023/05/19 08:19:17;;;;;;;5.88;5.25;;;;;;;;;;5036790;28;20132;-68
2023/05/19 08:21:43;;;;;;;10.70;5.68;;;;;;;;;;5037569;28;20041;-67
2023/05/19 08:24:09;;;;;;;5.60;5.10;;;;;;;;;;5037392;28;20399;-68
2023/05/19 08:26:34;;;;;;;6.53;5.93;;;;;;;;;;5039368;28;20488;-68
2023/05/19 08:29:00;;;;;;;6.05;5.53;;;;;;;;;;5036147;28;20071;-68
2023/05/19 08:31:25;;;;;;;5.80;5.30;;;;;;;;;;5034331;28;20041;-67
2023/05/19 08:33:51;;;;;;;8.48;5.57;;;;;;;;;;5039923;28;20049;-68
2023/05/19 08:36:17;;;;;;;6.45;5.30;;;;;;;;;;5033727;28;20090;-68
2023/05/19 08:38:43;;;;;;;5.70;4.90;;;;;;;;;;5037293;28;20063;-68
2023/05/19 08:41:08;;;;;;;5.53;5.05;;;;;;;;;;5040135;28;20033;-68
2023/05/19 08:43:34;;;;;;;5.47;4.82;;;;;;;;;;5040711;28;20037;-69
2023/05/19 08:46:00;;;;;;;8.15;5.30;;;;;;;;;;5041200;28;20044;-68
2023/05/19 08:48:29;;;;;;;4.97;4.53;;;;;;;;;;5036500;28;20505;-68
2023/05/19 08:51:00;;;;;;;5.40;5.03;;;;;;;;;;5029712;28;20102;-69
2023/05/19 08:53:35;;;;;;;4.80;4.50;;;;;;;;;;5039996;28;20539;-69
2023/05/19 08:56:10;;;;;;;9.52;5.55;;;;;;;;;;5038530;28;20029;-68
2023/05/19 08:58:42;;;;;;;8.38;5.20;;;;;;;;;;5032821;28;20120;-69
2023/05/19 09:01:17;;;;;;;6.22;5.70;;;;;;;;;;5032734;28;20033;-68
2023/05/19 09:03:48;;;;;;;5.18;4.78;;;;;;;;;;5032873;28;20059;-67
2023/05/19 09:06:14;;;;;;;5.78;5.28;;;;;;;;;;5036053;28;20033;-67
2023/05/19 09:08:41;;;;;;;6.32;5.00;;;;;;;;;;5037255;28;20044;-67
2023/05/19 09:11:08;;;;;;;5.10;4.70;;;;;;;;;;5035771;28;20655;-67
2023/05/19 09:13:33;;;;;;;5.40;5.03;;;;;;;;;;5035304;28;20408;-69
2023/05/19 09:15:59;;;;;;;5.45;4.97;;;;;;;;;;5029023;28;20485;-69
2023/05/19 09:18:25;;;;;;;6.55;5.05;;;;;;;;;;5035478;28;20467;-68
2023/05/19 09:21:01;;;;;;;5.60;5.10;;;;;;;;;;5036929;28;20091;-68
2023/05/19 09:23:28;;;;;;;6.28;5.13;;;;;;;;;;5033848;28;20036;-68
2023/05/19 09:25:55;;;;;;;5.50;5.00;;;;;;;;;;5038818;28;20698;-69
2023/05/19 09:28:24;;;;;;;5.53;5.03;;;;;;;;;;5032222;28;20041;-68
2023/05/19 09:31:03;;;;;;;7.82;5.28;;;;;;;;;;5036647;28;20045;-68
2023/05/19 09:33:29;;;;;;;;;;;;;;;;;;5038291;28;20044;-69
2023/05/19 09:35:56;;;;;;;5.97;5.35;;;;;;;;;;5042730;28;19913;-68
2023/05/19 09:38:25;;;;;;;6.13;5.32;;;;;;;;;;5042632;28;20033;-68
2023/05/19 09:40:52;;;;;;;6.25;5.47;;;;;;;;;;5039819;28;20033;-67
2023/05/19 09:43:18;;;;;;;6.15;5.60;;;;;;;;;;5036777;28;20410;-68
2023/05/19 09:45:43;;;;;;;5.30;4.90;;;;;;;;;;5037294;28;20183;-68
2023/05/19 09:48:09;;;;;;;6.00;5.18;;;;;;;;;;5032002;28;20041;-68
2023/05/19 09:50:35;;;;;;;7.50;5.38;;;;;;;;;;5040100;28;20186;-68
2023/05/19 09:53:01;;;;;;;5.40;4.90;;;;;;;;;;5036559;28;20037;-68
2023/05/19 09:55:27;;;;;;;5.45;4.95;;;;;;;;;;5036081;28;20025;-68
2023/05/19 09:57:56;;;;;;;9.18;5.07;;;;;;;;;;5036065;28;20348;-68
2023/05/19 10:00:22;;;;;;;6.03;5.50;;;;;;;;;;5041120;28;20124;-69
2023/05/19 10:02:49;;;;;;;5.88;5.30;;;;;;;;;;5036964;28;20469;-68
2023/05/19 10:05:19;;;;;;;6.10;5.60;;;;;;;;;;5036794;28;20049;-68
2023/05/19 10:07:48;;;;;;;5.78;5.38;;;;;;;;;;5037409;28;20090;-68
2023/05/19 10:10:14;;;;;;;6.70;6.00;;;;;;;;;;5032742;28;20366;-68
2023/05/19 10:12:41;;;;;;;7.55;5.75;;;;;;;;;;5039645;28;20032;-68
2023/05/19 10:15:09;;;;;;;9.50;5.97;;;;;;;;;;5042957;28;20061;-68
2023/05/19 10:17:37;;;;;;;5.85;5.38;;;;;;;;;;5042732;28;20031;-68
2023/05/19 10:20:05;;;;;;;7.05;5.75;;;;;;;;;;5038594;28;20031;-69
2023/05/19 10:22:32;;;;;;;6.47;5.87;;;;;;;;;;5046250;28;20099;-68
2023/05/19 10:24:58;;;;;;;6.13;5.32;;;;;;;;;;5042529;28;20037;-68
2023/05/19 10:27:24;;;;;;;6.07;5.68;;;;;;;;;;5040497;28;20044;-67
2023/05/19 10:29:51;;;;;;;5.60;5.20;;;;;;;;;;5038462;28;20033;-67
2023/05/19 10:32:23;;;;;;;5.28;4.95;;;;;;;;;;5044928;28;20327;-67
2023/05/19 10:34:52;;;;;;;5.43;4.90;;;;;;;;;;5041126;28;20120;-67
2023/05/19 10:37:43;;;;;;;5.78;5.40;;;;;;;;;;5023620;28;20033;-68
2023/05/19 10:40:27;;;;;;;5.63;5.15;;;;;;;;;;5040610;28;20072;-68
2023/05/19 10:43:08;;;;;;;5.97;5.43;;;;;;;;;;5038144;28;20036;-67
2023/05/19 10:45:48;;;;;;;5.80;5.28;;;;;;;;;;5037272;28;20527;-67
2023/05/19 10:48:15;;;;;;;7.55;5.20;;;;;;;;;;5040946;28;20509;-67
2023/05/19 10:50:45;;;;;;;5.25;4.90;;;;;;;;;;5026856;28;20043;-68
2023/05/19 10:53:22;;;;;;;5.28;4.85;;;;;;;;;;5038825;28;20086;-68
2023/05/19 10:55:54;;;;;;;5.63;5.13;;;;;;;;;;5041600;28;20033;-67
2023/05/19 10:58:48;;;;;;;5.50;5.05;;;;;;;;;;5038832;28;20031;-67
2023/05/19 11:01:15;;;;;;;6.80;5.50;;;;;;;;;;5037163;28;20249;-67
2023/05/19 11:03:52;;;;;;;5.95;5.43;;;;;;;;;;5039599;28;20029;-69
2023/05/19 11:06:25;;;;;;;5.50;5.00;;;;;;;;;;5038650;28;20141;-68
2023/05/19 11:09:14;;;;;;;6.00;5.40;;;;;;;;;;5040505;28;20106;-68
2023/05/19 11:11:46;;;;;;;5.93;5.35;;;;;;;;;;5032493;28;20123;-68
2023/05/19 11:14:22;;;;;;;5.40;4.97;;;;;;;;;;5041144;28;20516;-68
2023/05/19 11:16:50;;;;;;;5.65;5.15;;;;;;;;;;5040722;28;20432;-68
2023/05/19 11:19:25;;;;;;;4.95;4.65;;;;;;;;;;5040759;28;20041;-67
2023/05/19 11:21:54;;;;;;;5.60;5.25;;;;;;;;;;5039396;28;20025;-67
2023/05/19 11:24:51;;;;;;;5.57;5.03;;;;;;;;;;5042263;28;20045;-67
2023/05/19 11:27:32;;;;;;;7.05;5.07;;;;;;;;;;5027635;28;20043;-67
2023/05/19 11:30:00;;;;;;;5.18;4.63;;;;;;;;;;5024370;28;20404;-67
2023/05/19 11:32:29;;;;;;;5.88;5.35;;;;;;;;;;5043304;28;20451;-66
2023/05/19 11:34:56;;;;;;;8.10;5.93;;;;;;;;;;5043646;28;20467;-66
2023/05/19 11:37:22;;;;;;;18.30;6.22;;;;;;;;;;5034111;28;20029;-67
2023/05/19 11:39:48;;;;;;;25.60;6.03;;;;;;;;;;5042055;28;20037;-67
2023/05/19 11:42:13;;;;;;;5.78;5.38;;;;;;;;;;5042042;28;20033;-67
2023/05/19 11:44:40;;;;;;;13.75;5.53;;;;;;;;;;5039305;28;20823;-67
2023/05/19 11:47:06;;;;;;;5.72;4.97;;;;;;;;;;5039619;28;20112;-67
2023/05/19 11:49:32;;;;;;;5.68;5.25;;;;;;;;;;5041181;28;20033;-67
2023/05/19 11:52:02;;;;;;;5.43;5.05;;;;;;;;;;5038531;28;20039;-67
2023/05/19 11:54:32;;;;;;;5.20;4.90;;;;;;;;;;5037632;28;20032;-67
2023/05/19 11:57:02;;;;;;;4.88;4.57;;;;;;;;;;5034535;28;20123;-67
2023/05/19 11:59:35;;;;;;;6.50;4.82;;;;;;;;;;5032923;28;20065;-67
2023/05/19 12:02:13;;;;;;;4.85;4.45;;;;;;;;;;5039332;28;20044;-67
2023/05/19 12:04:38;;;;;;;5.65;5.15;;;;;;;;;;5031472;28;20148;-67
2023/05/19 12:07:04;;;;;;;5.53;5.10;;;;;;;;;;5028814;28;20465;-67
2023/05/19 12:09:29;;;;;;;5.25;4.85;;;;;;;;;;5037385;28;20072;-67
2023/05/19 12:11:55;;;;;;;6.78;4.90;;;;;;;;;;5033756;28;20103;-67
2023/05/19 12:14:21;;;;;;;6.07;5.00;;;;;;;;;;5038268;28;20063;-67
2023/05/19 12:16:46;;;;;;;5.40;5.03;;;;;;;;;;5034882;28;20090;-67
2023/05/19 12:19:12;;;;;;;6.45;5.15;;;;;;;;;;5035125;28;20461;-67
2023/05/19 12:21:38;;;;;;;5.45;5.05;;;;;;;;;;5038597;28;20028;-67
2023/05/19 12:24:04;;;;;;;5.47;5.15;;;;;;;;;;5039581;28;20439;-67
2023/05/19 12:26:30;;;;;;;6.78;5.03;;;;;;;;;;5033725;28;20045;-67
2023/05/19 12:28:57;;;;;;;5.82;5.20;;;;;;;;;;5033133;28;20044;-67
2023/05/19 12:31:23;;;;;;;5.25;4.85;;;;;;;;;;5035794;28;20576;-67
2023/05/19 12:33:51;;;;;;;5.97;5.38;;;;;;;;;;5033266;28;20119;-67
2023/05/19 12:36:17;;;;;;;5.43;5.03;;;;;;;;;;5033551;28;20041;-67
2023/05/19 12:38:44;;;;;;;6.60;5.57;;;;;;;;;;5031084;28;21362;-67
2023/05/19 12:41:14;;;;;;;5.78;5.32;;;;;;;;;;5028940;28;20408;-67
2023/05/19 12:43:40;;;;;;;5.57;5.07;;;;;;;;;;5038607;28;20171;-67
2023/05/19 12:46:12;;;;;;;5.78;5.18;;;;;;;;;;5035718;28;20116;-67
2023/05/19 12:48:45;;;;;;;6.60;5.75;;;;;;;;;;5036831;28;20480;-68
2023/05/19 12:51:20;;;;;;;7.22;5.38;;;;;;;;;;5034359;28;20530;-67
2023/05/19 12:53:46;;;;;;;6.03;5.50;;;;;;;;;;5026608;28;20382;-68
2023/05/19 12:56:13;;;;;;;6.40;5.80;;;;;;;;;;5032488;28;20043;-68
2023/05/19 12:58:39;;;;;;;6.38;5.82;;;;;;;;;;5036052;28;20528;-68
2023/05/19 13:01:07;;;;;;;7.75;5.50;;;;;;;;;;5032857;28;20409;-68
2023/05/19 13:03:39;;;;;;;6.13;5.60;;;;;;;;;;5029588;28;20033;-68
2023/05/19 13:06:05;;;;;;;9.18;5.47;;;;;;;;;;5027852;28;20072;-68
2023/05/19 13:08:30;;;;;;;9.55;5.90;;;;;;;;;;5029436;28;20453;-68
2023/05/19 13:10:56;;;;;;;5.55;5.15;;;;;;;;;;5030496;28;20548;-68
2023/05/19 13:13:22;;;;;;;6.47;5.57;;;;;;;;;;5033031;28;20529;-68
2023/05/19 13:15:47;;;;;;;7.70;5.50;;;;;;;;;;5037103;28;20474;-68
2023/05/19 13:18:14;;;;;;;6.07;5.47;;;;;;;;;;5032322;28;20033;-68
2023/05/19 13:20:41;;;;;;;7.00;6.18;;;;;;;;;;5028901;28;20056;-68
2023/05/19 13:23:09;;;;;;;5.75;5.35;;;;;;;;;;5030705;28;20148;-68
2023/05/19 13:25:35;;;;;;;6.10;5.10;;;;;;;;;;5032497;28;20048;-68
2023/05/19 13:28:04;;;;;;;6.43;5.30;;;;;;;;;;5038477;28;20029;-68
2023/05/19 13:30:34;;;;;;;6.28;5.60;;;;;;;;;;5030414;28;20064;-68
2023/05/19 13:33:00;;;;;;;5.90;5.30;;;;;;;;;;5037581;28;21923;-68
2023/05/19 13:35:25;;;;;;;5.88;5.35;;;;;;;;;;5034391;28;20412;-69
2023/05/19 13:37:51;;;;;;;6.32;5.63;;;;;;;;;;5031752;28;20112;-68
2023/05/19 13:40:17;;;;;;;6.22;5.63;;;;;;;;;;5038894;28;20048;-68
2023/05/19 13:42:44;;;;;;;5.65;5.25;;;;;;;;;;5033631;28;20029;-68
2023/05/19 13:45:10;;;;;;;9.25;5.60;;;;;;;;;;5040366;28;20029;-68
2023/05/19 13:47:36;;;;;;;5.53;5.13;;;;;;;;;;5037945;28;20025;-68
2023/05/19 13:50:03;;;;;;;10.43;5.22;;;;;;;;;;5038268;28;20037;-68
2023/05/19 13:52:29;;;;;;;5.47;4.97;;;;;;;;;;5017811;28;20067;-68
2023/05/19 13:54:55;;;;;;;5.30;4.90;;;;;;;;;;5035759;28;20041;-68
2023/05/19 13:57:22;;;;;;;8.60;5.63;;;;;;;;;;5025199;28;20124;-67
2023/05/19 13:59:48;;;;;;;7.78;5.25;;;;;;;;;;5029009;28;20469;-68
2023/05/19 14:02:13;;;;;;;6.00;5.50;;;;;;;;;;5030439;28;20040;-68
2023/05/19 14:04:39;;;;;;;5.90;5.30;;;;;;;;;;5031194;28;20408;-68
2023/05/19 14:07:05;;;;;;;6.68;5.50;;;;;;;;;;5032843;28;20029;-68
2023/05/19 14:09:35;;;;;;;5.93;5.43;;;;;;;;;;5028757;28;20136;-68
2023/05/19 14:12:01;;;;;;;6.35;5.50;;;;;;;;;;5033014;28;20036;-68
2023/05/19 14:14:26;;;;;;;6.07;5.53;;;;;;;;;;5030206;28;20036;-68
2023/05/19 14:16:52;;;;;;;6.75;5.22;;;;;;;;;;5030668;28;20021;-68
2023/05/19 14:19:18;;;;;;;8.00;5.50;;;;;;;;;;5032129;28;20488;-68
2023/05/19 14:21:43;;;;;;;5.82;5.03;;;;;;;;;;5041085;28;20041;-68
2023/05/19 14:24:09;;;;;;;8.13;5.30;;;;;;;;;;5043606;28;20033;-68
2023/05/19 14:26:35;;;;;;;7.05;5.95;;;;;;;;;;5040486;28;20515;-67
2023/05/19 14:29:01;;;;;;;5.95;5.50;;;;;;;;;;5039251;28;20025;-68
2023/05/19 14:31:27;;;;;;;7.28;5.68;;;;;;;;;;5039590;28;20037;-67
2023/05/19 14:33:52;;;;;;;6.03;5.43;;;;;;;;;;5040780;28;20037;-68
2023/05/19 14:36:18;;;;;;;5.68;5.20;;;;;;;;;;5043166;28;20028;-68
2023/05/19 14:38:43;;;;;;;7.50;5.70;;;;;;;;;;5041768;28;20037;-68
2023/05/19 14:41:09;;;;;;;5.97;5.43;;;;;;;;;;5041169;28;20029;-68
2023/05/19 14:43:35;;;;;;;5.50;5.10;;;;;;;;;;5041644;28;20434;-68
2023/05/19 14:46:00;;;;;;;6.15;5.55;;;;;;;;;;5024378;28;20106;-67
2023/05/19 14:48:26;;;;;;;8.35;5.88;;;;;;;;;;5042689;28;20025;-68